createdAt,value
2023-03-31T00:02:13.899Z,100265.94
2023-03-31T00:04:46.688Z,100263.88
2023-03-31T00:07:14.692Z,100261.41
2023-03-31T00:09:46.418Z,100249.97
2023-03-31T00:12:13.905Z,100241.34
2023-03-31T00:14:42.383Z,100249.53
2023-03-31T00:17:09.523Z,100240.09
2023-03-31T00:19:37.414Z,100235.84
2023-03-31T00:22:05.398Z,100225.19
2023-03-31T00:24:33.052Z,100224.13
2023-03-31T00:27:00.709Z,100218.78
2023-03-31T00:29:28.066Z,100225.19
2023-03-31T00:31:56.584Z,100216.38
2023-03-31T00:34:23.387Z,100207.53
2023-03-31T00:36:50.191Z,100203.25
2023-03-31T00:39:19.214Z,100201.59
2023-03-31T00:41:46.043Z,100189.31
2023-03-31T00:44:15.064Z,100191.75
2023-03-31T00:46:46.666Z,100183.97
2023-03-31T00:49:22.911Z,100187.66
2023-03-31T00:51:52.767Z,100187.88
2023-03-31T00:54:23.424Z,100188.91
2023-03-31T00:56:53.322Z,100181.94
2023-03-31T00:59:27.530Z,100177.66
2023-03-31T01:01:59.373Z,100168.00
2023-03-31T01:04:28.899Z,100168.41
2023-03-31T01:07:02.414Z,100159.84
2023-03-31T01:09:35.011Z,100163.31
2023-03-31T01:12:06.227Z,100158.22
2023-03-31T01:14:34.228Z,100141.81
2023-03-31T01:17:02.722Z,100143.88
2023-03-31T01:19:42.776Z,100119.31
2023-03-31T01:22:46.064Z,100133.63
2023-03-31T01:25:52.306Z,100115.00
2023-03-31T01:28:29.659Z,100099.03
2023-03-31T01:31:27.545Z,100095.34
2023-03-31T01:34:27.118Z,100091.03
2023-03-31T01:37:26.011Z,100083.84
2023-03-31T01:40:40.674Z,100080.38
2023-03-31T01:43:17.241Z,100078.53
2023-03-31T01:45:56.696Z,100076.06
2023-03-31T01:48:34.125Z,100058.03
2023-03-31T01:51:07.093Z,100056.19
2023-03-31T01:53:44.542Z,100052.50
2023-03-31T01:56:18.337Z,100046.38
2023-03-31T01:58:52.199Z,100042.06
2023-03-31T02:01:25.483Z,100034.06
2023-03-31T02:03:58.453Z,100034.88
2023-03-31T02:06:30.858Z,100026.91
2023-03-31T02:09:02.792Z,100017.28
2023-03-31T02:11:32.095Z,100011.13
2023-03-31T02:14:05.029Z,100011.13
2023-03-31T02:16:35.432Z,100002.31
2023-03-31T02:19:06.108Z,99998.84
2023-03-31T02:21:34.817Z,99992.69
2023-03-31T02:24:04.538Z,99988.19
2023-03-31T02:26:37.118Z,99981.22
2023-03-31T02:29:05.600Z,99965.69
2023-03-31T02:31:41.583Z,99963.84
2023-03-31T02:34:09.637Z,99955.03
2023-03-31T02:36:37.491Z,99948.06
2023-03-31T02:39:08.804Z,99947.03
2023-03-31T02:41:36.033Z,99938.44
2023-03-31T02:44:05.617Z,99930.47
2023-03-31T02:46:33.468Z,99923.28
2023-03-31T02:49:03.384Z,99912.03
2023-03-31T02:51:51.615Z,99900.34
2023-03-31T02:54:51.495Z,99891.53
2023-03-31T02:57:50.015Z,99880.06
2023-03-31T03:00:26.464Z,99879.50
2023-03-31T03:03:13.004Z,99877.25
2023-03-31T03:05:49.917Z,99867.41
2023-03-31T03:08:23.404Z,99863.13
2023-03-31T03:11:01.853Z,99849.81
2023-03-31T03:13:33.474Z,99847.13
2023-03-31T03:16:06.448Z,99836.28
2023-03-31T03:18:33.617Z,99838.13
2023-03-31T03:21:00.430Z,99835.25
2023-03-31T03:23:27.334Z,99835.47
2023-03-31T03:25:56.002Z,99835.47
2023-03-31T03:28:23.189Z,99837.09
2023-03-31T03:30:49.999Z,99827.69
2023-03-31T03:33:18.512Z,99800.25
2023-03-31T03:35:45.663Z,99800.84
2023-03-31T03:38:12.449Z,99801.44
2023-03-31T03:40:40.959Z,99800.03
2023-03-31T03:43:07.764Z,99792.66
2023-03-31T03:45:34.570Z,99784.66
2023-03-31T03:48:01.402Z,99780.38
2023-03-31T03:50:29.570Z,99770.75
2023-03-31T03:52:57.910Z,99767.06
2023-03-31T03:55:24.612Z,99761.72
2023-03-31T03:57:51.409Z,99760.69
2023-03-31T04:00:19.953Z,99760.69
2023-03-31T04:02:47.211Z,99743.91
2023-03-31T04:05:15.603Z,99738.38
2023-03-31T04:07:45.145Z,99734.63
2023-03-31T04:10:12.055Z,99729.56
2023-03-31T04:12:38.829Z,99738.38
2023-03-31T04:15:06.816Z,99732.22
2023-03-31T04:17:34.994Z,99725.25
2023-03-31T04:20:05.663Z,99720.38
2023-03-31T04:22:35.604Z,99709.34
2023-03-31T04:25:05.320Z,99702.41
2023-03-31T04:27:33.831Z,99695.66
2023-03-31T04:30:00.658Z,99682.53
2023-03-31T04:32:28.419Z,99669.84
2023-03-31T04:35:03.510Z,99664.72
2023-03-31T04:37:35.014Z,99660.19
2023-03-31T04:40:11.574Z,99653.25
2023-03-31T04:42:39.854Z,99643.06
2023-03-31T04:45:07.511Z,99627.91
2023-03-31T04:47:34.368Z,99626.88
2023-03-31T04:50:01.469Z,99610.28
2023-03-31T04:52:28.609Z,99611.47
2023-03-31T04:54:55.468Z,99603.94
2023-03-31T04:57:22.282Z,99598.00
2023-03-31T04:59:50.513Z,99598.00
2023-03-31T05:02:25.265Z,99594.31
2023-03-31T05:04:53.005Z,99574.28
2023-03-31T05:07:20.593Z,99577.19
2023-03-31T05:09:47.490Z,99576.78
2023-03-31T05:12:14.341Z,99565.56
2023-03-31T05:14:41.052Z,99561.25
2023-03-31T05:17:09.167Z,99556.75
2023-03-31T05:19:36.235Z,99549.81
2023-03-31T05:22:03.087Z,99541.03
2023-03-31T05:24:30.165Z,99542.06
2023-03-31T05:26:58.416Z,99536.75
2023-03-31T05:29:25.309Z,99536.75
2023-03-31T05:31:54.013Z,99534.06
2023-03-31T05:34:22.142Z,99530.38
2023-03-31T05:36:50.539Z,99525.28
2023-03-31T05:39:17.335Z,99530.59
2023-03-31T05:41:44.113Z,99522.63
2023-03-31T05:44:11.330Z,99521.19
2023-03-31T05:46:38.450Z,99525.72
2023-03-31T05:49:06.471Z,99509.97
2023-03-31T05:51:34.729Z,99501.97
2023-03-31T05:54:01.461Z,99494.25
2023-03-31T05:56:28.187Z,99488.91
2023-03-31T05:58:54.912Z,99480.94
2023-03-31T06:01:23.292Z,99477.25
2023-03-31T06:03:50.942Z,99478.63
2023-03-31T06:06:18.293Z,99475.97
2023-03-31T06:08:47.580Z,99476.19
2023-03-31T06:11:16.719Z,99479.66
2023-03-31T06:13:45.305Z,99471.66
2023-03-31T06:16:13.627Z,99487.41
2023-03-31T06:18:41.363Z,99487.19
2023-03-31T06:21:11.242Z,99481.41
2023-03-31T06:23:38.240Z,99467.06
2023-03-31T06:26:08.505Z,99473.22
2023-03-31T06:28:35.967Z,99467.91
2023-03-31T06:31:04.593Z,99467.91
2023-03-31T06:33:31.767Z,99468.50
2023-03-31T06:35:59.665Z,99462.34
2023-03-31T06:38:26.430Z,99470.13
2023-03-31T06:40:53.691Z,99461.31
2023-03-31T06:43:21.953Z,99458.44
2023-03-31T06:45:50.546Z,99462.13
2023-03-31T06:48:18.654Z,99466.44
2023-03-31T06:50:45.519Z,99456.81
2023-03-31T06:53:12.377Z,99457.41
2023-03-31T06:55:40.725Z,99454.50
2023-03-31T06:58:07.438Z,99448.94
2023-03-31T07:00:35.619Z,99445.25
2023-03-31T07:03:04.002Z,99444.44
2023-03-31T07:05:32.121Z,99440.97
2023-03-31T07:07:59.892Z,99440.75
2023-03-31T07:10:29.616Z,99435.44
2023-03-31T07:12:58.363Z,99436.59
2023-03-31T07:15:26.064Z,99439.25
2023-03-31T07:18:02.901Z,99440.91
2023-03-31T07:20:30.760Z,99438.25
2023-03-31T07:22:57.684Z,99432.91
2023-03-31T07:25:25.082Z,99440.69
2023-03-31T07:27:51.965Z,99432.47
2023-03-31T07:30:20.269Z,99426.13
2023-03-31T07:32:47.964Z,99431.19
2023-03-31T07:35:17.228Z,99423.00
2023-03-31T07:37:47.432Z,99418.25
2023-03-31T07:40:17.419Z,99419.06
2023-03-31T07:42:46.020Z,99412.94
2023-03-31T07:45:16.701Z,99411.09
2023-03-31T07:47:44.858Z,99394.06
2023-03-31T07:50:13.202Z,99403.69
2023-03-31T07:52:44.119Z,99391.41
2023-03-31T07:55:13.490Z,99379.94
2023-03-31T07:57:42.574Z,99386.91
2023-03-31T08:00:12.537Z,99380.75
2023-03-31T08:02:40.187Z,99385.06
2023-03-31T08:05:07.592Z,99377.06
2023-03-31T08:07:35.108Z,99369.88
2023-03-31T08:10:06.998Z,99366.16
2023-03-31T08:12:33.848Z,99369.41
2023-03-31T08:15:01.490Z,99363.88
2023-03-31T08:17:28.428Z,99362.03
2023-03-31T08:19:55.513Z,99356.47
2023-03-31T08:22:23.465Z,99351.94
2023-03-31T08:24:50.235Z,99348.00
2023-03-31T08:27:18.385Z,99352.91
2023-03-31T08:29:45.279Z,99343.88
2023-03-31T08:32:12.274Z,99337.03
2023-03-31T08:34:38.969Z,99346.97
2023-03-31T08:37:06.155Z,99353.47
2023-03-31T08:39:34.201Z,99342.13
2023-03-31T08:42:03.018Z,99348.63
2023-03-31T08:44:36.837Z,99343.63
2023-03-31T08:47:07.730Z,99347.22
2023-03-31T08:49:41.745Z,99350.25
2023-03-31T08:52:13.741Z,99347.47
2023-03-31T08:54:43.841Z,99345.13
2023-03-31T08:57:17.636Z,99339.56
2023-03-31T08:59:47.178Z,99343.41
2023-03-31T09:02:26.156Z,99348.25
2023-03-31T09:05:18.122Z,99337.97
2023-03-31T09:07:58.819Z,99339.91
2023-03-31T09:10:39.532Z,99342.13
2023-03-31T09:13:21.344Z,99345.34
2023-03-31T09:15:54.279Z,99341.63
2023-03-31T09:18:28.898Z,99332.38
2023-03-31T09:21:02.766Z,99335.13
2023-03-31T09:23:36.387Z,99331.19
2023-03-31T09:26:04.893Z,99330.94
2023-03-31T09:28:37.104Z,99327.81
2023-03-31T09:31:13.172Z,99322.25
2023-03-31T09:33:45.022Z,99314.56
2023-03-31T09:36:16.580Z,99316.19
2023-03-31T09:38:44.298Z,99321.06
2023-03-31T09:41:12.931Z,99322.69
2023-03-31T09:43:47.518Z,99299.00
2023-03-31T09:46:20.436Z,99309.00
2023-03-31T09:48:55.738Z,99306.66
2023-03-31T09:51:27.472Z,99306.41
2023-03-31T09:53:58.610Z,99304.88
2023-03-31T09:56:49.107Z,99295.59
2023-03-31T09:59:17.983Z,99293.53
2023-03-31T10:01:49.760Z,99296.53
2023-03-31T10:04:24.803Z,99288.88
2023-03-31T10:06:53.708Z,99284.66
2023-03-31T10:09:24.485Z,99285.25
2023-03-31T10:11:56.799Z,99275.94
2023-03-31T10:14:28.056Z,99284.19
2023-03-31T10:16:57.366Z,99284.66
2023-03-31T10:19:28.400Z,99280.38
2023-03-31T10:22:00.089Z,99276.34
2023-03-31T10:24:37.757Z,99279.25
2023-03-31T10:27:06.853Z,99286.66
2023-03-31T10:29:35.554Z,99285.03
2023-03-31T10:32:06.205Z,99288.22
2023-03-31T10:34:42.449Z,99280.19
2023-03-31T10:37:17.131Z,99277.53
2023-03-31T10:39:45.926Z,99276.22
2023-03-31T10:42:20.909Z,99272.50
2023-03-31T10:44:47.641Z,99275.75
2023-03-31T10:47:21.545Z,99273.41
2023-03-31T10:49:51.925Z,99272.13
2023-03-31T10:52:21.221Z,99258.63
2023-03-31T10:54:49.936Z,99261.38
2023-03-31T10:57:18.816Z,99261.97
2023-03-31T11:00:05.738Z,99251.13
2023-03-31T11:02:56.753Z,99245.63
2023-03-31T11:05:29.421Z,99248.38
2023-03-31T11:08:12.342Z,99242.81
2023-03-31T11:11:00.633Z,99238.84
2023-03-31T11:13:40.570Z,99241.00
2023-03-31T11:16:18.790Z,99240.53
2023-03-31T11:18:59.594Z,99239.50
2023-03-31T11:21:36.767Z,99237.63
2023-03-31T11:24:16.369Z,99241.34
2023-03-31T11:26:51.590Z,99238.44
2023-03-31T11:29:29.179Z,99232.59
2023-03-31T11:31:59.316Z,99238.28
2023-03-31T11:34:58.197Z,99240.72
2023-03-31T11:37:42.969Z,99222.00
2023-03-31T11:40:21.911Z,99230.56
2023-03-31T11:42:52.294Z,99225.56
2023-03-31T11:45:24.411Z,99220.53
2023-03-31T11:47:57.736Z,99221.91
2023-03-31T11:50:29.414Z,99222.47
2023-03-31T11:53:01.138Z,99215.59
2023-03-31T11:55:32.011Z,99204.41
2023-03-31T11:58:04.227Z,99211.69
2023-03-31T12:00:34.905Z,99210.38
2023-03-31T12:03:09.794Z,99204.53
2023-03-31T12:05:42.635Z,99201.88
2023-03-31T12:08:16.953Z,99199.75
2023-03-31T12:10:49.272Z,99197.56
2023-03-31T12:13:40.959Z,99195.16
2023-03-31T12:16:14.834Z,99194.91
2023-03-31T12:18:48.199Z,99184.78
2023-03-31T12:21:17.501Z,99177.34
2023-03-31T12:23:45.750Z,99174.66
2023-03-31T12:26:28.119Z,99175.22
2023-03-31T12:28:58.957Z,99163.47
2023-03-31T12:31:27.821Z,99159.97
2023-03-31T12:33:58.637Z,99172.28
2023-03-31T12:36:40.669Z,99153.03
2023-03-31T12:39:23.604Z,99163.97
2023-03-31T12:42:08.704Z,99161.78
2023-03-31T12:44:50.776Z,99161.78
2023-03-31T12:47:34.059Z,99150.28
2023-03-31T12:50:18.421Z,99150.28
2023-03-31T12:52:57.357Z,99163.09
2023-03-31T12:55:37.807Z,99156.06
2023-03-31T12:58:37.655Z,99156.81
2023-03-31T13:01:08.110Z,99156.50
2023-03-31T13:04:10.211Z,99150.03
2023-03-31T13:06:54.066Z,99157.47
2023-03-31T13:09:57.850Z,99142.53
2023-03-31T13:12:28.237Z,99147.31
2023-03-31T13:15:00.189Z,99147.53
2023-03-31T13:17:31.008Z,99147.31
2023-03-31T13:20:17.421Z,99139.03
2023-03-31T13:22:48.312Z,99136.09
2023-03-31T13:25:37.654Z,99131.03
2023-03-31T13:28:26.956Z,99131.03
2023-03-31T13:30:57.079Z,99132.09
2023-03-31T13:33:28.799Z,99117.91
2023-03-31T13:36:19.341Z,99123.50
2023-03-31T13:38:58.969Z,99133.06
2023-03-31T13:41:41.746Z,99131.94
2023-03-31T13:44:32.469Z,99131.63
2023-03-31T13:47:18.255Z,99135.84
2023-03-31T13:49:55.954Z,99123.00
2023-03-31T13:52:38.108Z,99133.91
2023-03-31T13:55:33.819Z,99121.53
2023-03-31T13:58:34.514Z,99120.69
2023-03-31T14:01:41.243Z,99125.09
2023-03-31T14:04:30.027Z,99114.13
2023-03-31T14:06:59.647Z,99115.97
2023-03-31T14:09:31.612Z,99115.97
2023-03-31T14:11:59.000Z,99116.78
2023-03-31T14:14:30.474Z,99091.72
2023-03-31T14:17:00.586Z,99104.25
2023-03-31T14:19:55.869Z,99099.72
2023-03-31T14:22:32.972Z,99095.44
2023-03-31T14:25:11.646Z,99091.16
2023-03-31T14:27:51.057Z,99091.41
2023-03-31T14:30:29.413Z,99095.09
2023-03-31T14:33:08.576Z,99094.00
2023-03-31T14:35:58.125Z,99098.75
2023-03-31T14:38:28.285Z,99094.97
2023-03-31T14:40:57.665Z,99095.16
2023-03-31T14:43:27.726Z,99082.50
2023-03-31T14:46:00.030Z,99093.31
2023-03-31T14:48:28.561Z,99080.50
2023-03-31T14:50:58.248Z,99078.28
2023-03-31T14:53:26.525Z,99085.72
2023-03-31T14:56:03.076Z,99082.28
2023-03-31T14:58:35.024Z,99071.84
2023-03-31T15:01:07.033Z,99065.69
2023-03-31T15:03:35.293Z,99076.13
2023-03-31T15:06:04.774Z,99081.13
2023-03-31T15:08:33.020Z,99080.81
2023-03-31T15:11:13.047Z,99080.72
2023-03-31T15:13:46.802Z,99087.38
2023-03-31T15:16:29.981Z,99081.69
2023-03-31T15:18:59.059Z,99078.22
2023-03-31T15:21:27.837Z,99074.72
2023-03-31T15:23:56.188Z,99074.97
2023-03-31T15:26:40.624Z,99073.13
2023-03-31T15:29:12.709Z,99074.72
2023-03-31T15:31:41.776Z,99069.63
2023-03-31T15:34:15.098Z,99066.19
2023-03-31T15:36:43.774Z,99064.31
2023-03-31T15:39:11.702Z,99060.59
2023-03-31T15:41:38.527Z,99065.13
2023-03-31T15:44:07.693Z,99066.50
2023-03-31T15:46:56.528Z,99074.25
2023-03-31T15:49:25.521Z,99066.25
2023-03-31T15:51:55.712Z,99066.50
2023-03-31T15:54:31.509Z,99069.16
2023-03-31T15:57:01.348Z,99071.03
2023-03-31T16:02:19.187Z,99067.22
2023-03-31T16:04:49.326Z,99074.09
2023-03-31T16:07:19.935Z,99068.19
2023-03-31T16:09:52.432Z,99065.19
2023-03-31T16:12:23.392Z,99068.59
2023-03-31T16:14:55.818Z,99072.31
2023-03-31T16:17:34.013Z,99063.72
2023-03-31T16:20:08.796Z,99061.56
2023-03-31T16:22:40.245Z,99066.31
2023-03-31T16:25:13.597Z,99059.59
2023-03-31T16:27:43.495Z,99078.75
2023-03-31T16:30:13.936Z,99067.75
2023-03-31T16:33:00.962Z,99063.16
2023-03-31T16:35:33.508Z,99062.56
2023-03-31T16:38:01.930Z,99066.03
2023-03-31T16:40:29.890Z,99060.13
2023-03-31T16:43:12.094Z,99057.97
2023-03-31T16:45:38.866Z,99057.41
2023-03-31T16:50:56.353Z,99060.28
2023-03-31T16:53:24.893Z,99057.03
2023-03-31T16:55:51.638Z,99057.03
2023-03-31T16:58:20.038Z,99051.72
2023-03-31T17:00:47.149Z,99051.72
2023-03-31T17:03:16.605Z,99048.28
2023-03-31T17:05:44.951Z,99050.59
2023-03-31T17:08:12.990Z,99053.72
2023-03-31T17:10:42.015Z,99051.56
2023-03-31T17:13:09.784Z,99044.28
2023-03-31T17:15:37.833Z,99046.38
2023-03-31T17:18:05.208Z,99041.84
2023-03-31T17:20:38.988Z,99037.56
2023-03-31T17:23:06.572Z,99039.66
2023-03-31T17:25:34.564Z,99038.03
2023-03-31T17:28:01.938Z,99034.56
2023-03-31T17:30:28.819Z,99029.22
2023-03-31T17:32:56.328Z,99030.31
2023-03-31T17:35:25.351Z,99027.63
2023-03-31T17:37:56.322Z,99036.66
2023-03-31T17:40:25.854Z,99028.09
2023-03-31T17:42:54.056Z,99034.69
2023-03-31T17:45:20.844Z,99031.72
2023-03-31T17:47:47.711Z,99025.59
2023-03-31T17:50:14.561Z,99030.56
2023-03-31T17:52:41.285Z,99044.38
2023-03-31T17:55:10.314Z,99026.19
2023-03-31T17:57:37.601Z,99028.03
2023-03-31T18:00:06.142Z,99041.34
2023-03-31T18:02:33.390Z,99034.41
2023-03-31T18:05:00.654Z,99035.22
2023-03-31T18:07:28.411Z,99042.16
2023-03-31T18:09:55.116Z,99028.84
2023-03-31T18:12:23.250Z,99044.00
2023-03-31T18:14:50.752Z,99030.97
2023-03-31T18:17:17.691Z,99034.09
2023-03-31T18:19:44.501Z,99035.13
2023-03-31T18:22:11.585Z,99034.53
2023-03-31T18:24:39.139Z,99031.88
2023-03-31T18:27:06.441Z,99035.34
2023-03-31T18:29:34.622Z,99023.88
2023-03-31T18:32:01.925Z,99029.22
2023-03-31T18:34:29.108Z,99027.84
2023-03-31T18:36:55.830Z,99038.97
2023-03-31T18:39:22.582Z,99027.69
2023-03-31T18:41:49.711Z,99031.66
2023-03-31T18:44:17.662Z,99025.53
2023-03-31T18:46:46.108Z,99028.41
2023-03-31T18:49:14.467Z,99027.59
2023-03-31T18:51:41.238Z,99035.59
2023-03-31T18:54:08.008Z,99029.47
2023-03-31T18:56:34.739Z,99023.31
2023-03-31T18:59:04.186Z,99038.47
2023-03-31T19:01:32.682Z,99031.56
2023-03-31T19:04:00.984Z,99035.00
2023-03-31T19:06:27.766Z,99039.56
2023-03-31T19:08:55.977Z,99032.59
2023-03-31T19:11:23.860Z,99038.47
2023-03-31T19:13:50.671Z,99031.56
2023-03-31T19:16:18.685Z,99032.03
2023-03-31T19:18:45.551Z,99026.94
2023-03-31T19:21:13.685Z,99024.50
2023-03-31T19:23:40.769Z,99029.81
2023-03-31T19:26:07.832Z,99034.34
2023-03-31T19:28:34.981Z,99031.94
2023-03-31T19:31:04.708Z,99032.97
2023-03-31T19:33:31.758Z,99038.28
2023-03-31T19:35:59.126Z,99029.28
2023-03-31T19:38:31.911Z,99038.28
2023-03-31T19:41:00.084Z,99027.66
2023-03-31T19:43:29.336Z,99034.81
2023-03-31T19:45:57.991Z,99034.00
2023-03-31T19:48:26.627Z,99027.06
2023-03-31T19:50:54.789Z,99025.44
2023-03-31T19:53:24.618Z,99025.44
2023-03-31T19:55:57.744Z,99030.75
2023-03-31T19:58:24.907Z,99019.31
2023-03-31T20:00:52.571Z,99023.81
2023-03-31T20:03:19.667Z,99020.34
2023-03-31T20:05:46.824Z,99024.88
2023-03-31T20:08:14.174Z,99023.81
2023-03-31T20:10:41.468Z,99020.59
2023-03-31T20:13:09.954Z,99018.41
2023-03-31T20:15:37.880Z,99016.78
2023-03-31T20:18:05.924Z,99017.59
2023-03-31T20:20:33.073Z,99008.78
2023-03-31T20:22:59.995Z,99014.13
2023-03-31T20:25:27.080Z,99014.34
2023-03-31T20:27:53.876Z,99006.38
2023-03-31T20:30:22.060Z,99008.00
2023-03-31T20:32:48.875Z,99009.03
2023-03-31T20:35:15.868Z,99010.09
2023-03-31T20:37:42.798Z,98998.06
2023-03-31T20:40:11.835Z,99012.97
2023-03-31T20:42:38.648Z,99003.59
2023-03-31T20:45:06.705Z,99004.41
2023-03-31T20:47:35.372Z,99009.75
2023-03-31T20:50:04.144Z,99010.78
2023-03-31T20:52:30.947Z,99007.09
2023-03-31T20:54:57.828Z,99002.56
2023-03-31T20:57:26.352Z,99004.41
2023-03-31T20:59:53.233Z,99002.81
2023-03-31T21:02:20.060Z,99005.69
2023-03-31T21:04:50.576Z,98999.31
2023-03-31T21:07:18.040Z,99010.78
2023-03-31T21:09:44.964Z,99002.00
2023-03-31T21:12:11.689Z,99006.50
2023-03-31T21:14:38.380Z,99003.84
2023-03-31T21:17:05.409Z,99004.91
2023-03-31T21:19:32.490Z,99010.22
2023-03-31T21:22:00.796Z,99006.75
2023-03-31T21:24:27.795Z,99001.66
2023-03-31T21:26:55.026Z,99004.31
2023-03-31T21:29:21.743Z,99005.59
2023-03-31T21:31:50.162Z,98996.56
2023-03-31T21:34:17.281Z,99002.94
2023-03-31T21:36:44.099Z,98999.22
2023-03-31T21:39:12.162Z,99001.31
2023-03-31T21:41:40.556Z,98995.19
2023-03-31T21:44:08.970Z,98996.78
2023-03-31T21:46:36.157Z,98987.78
2023-03-31T21:49:03.274Z,98979.00
2023-03-31T21:51:30.749Z,98984.53
2023-03-31T21:53:57.950Z,98981.06
2023-03-31T21:56:32.088Z,98976.00
2023-03-31T21:58:59.914Z,98984.78
2023-03-31T22:01:26.803Z,98982.38
2023-03-31T22:03:54.222Z,98986.06
2023-03-31T22:06:24.739Z,98983.03
2023-03-31T22:08:51.570Z,98982.00
2023-03-31T22:11:18.289Z,98982.50
2023-03-31T22:13:46.406Z,98984.34
2023-03-31T22:16:18.666Z,98987.81
2023-03-31T22:18:47.023Z,98987.81
2023-03-31T22:21:15.807Z,98979.84
2023-03-31T22:23:42.574Z,98981.69
2023-03-31T22:26:09.402Z,98981.09
2023-03-31T22:28:36.160Z,98981.09
2023-03-31T22:31:04.327Z,98978.22
2023-03-31T22:33:31.349Z,98986.41
2023-03-31T22:35:58.144Z,98983.75
2023-03-31T22:38:24.990Z,98976.81
2023-03-31T22:40:51.800Z,98986.41
2023-03-31T22:43:18.937Z,98983.16
2023-03-31T22:45:45.730Z,98978.66
2023-03-31T22:48:14.210Z,98982.13
2023-03-31T22:50:43.400Z,98978.66
2023-03-31T22:53:10.910Z,98982.94
2023-03-31T22:55:42.391Z,98989.28
2023-03-31T22:58:09.637Z,98993.00
2023-03-31T23:00:38.337Z,98987.44
2023-03-31T23:03:05.559Z,98997.84
2023-03-31T23:05:34.804Z,98991.16
2023-03-31T23:08:02.175Z,98989.56
2023-03-31T23:10:29.202Z,98983.44
2023-03-31T23:12:56.024Z,98984.25
2023-03-31T23:15:22.790Z,98987.13
2023-03-31T23:17:49.624Z,98984.25
2023-03-31T23:20:17.396Z,98989.56
2023-03-31T23:22:45.509Z,98987.94
2023-03-31T23:25:12.343Z,98990.34
2023-03-31T23:27:40.361Z,98991.41
2023-03-31T23:30:08.441Z,98983.44
2023-03-31T23:32:35.370Z,98984.47
2023-03-31T23:35:02.190Z,98985.28
2023-03-31T23:37:28.889Z,98987.69
2023-03-31T23:39:57.576Z,98987.69
2023-03-31T23:42:24.282Z,98985.81
2023-03-31T23:44:51.222Z,98989.56
2023-03-31T23:47:18.141Z,98979.97
2023-03-31T23:49:44.905Z,98983.66
2023-03-31T23:52:11.637Z,98982.84
2023-03-31T23:54:38.626Z,98985.50
2023-03-31T23:57:07.358Z,98979.16
2023-03-31T23:59:34.389Z,98981.56
